createdAt,value
2023-10-13T00:02:56.072Z,17.70
2023-10-13T00:06:21.538Z,17.80
2023-10-13T00:09:02.831Z,17.80
2023-10-13T00:11:40.378Z,17.80
2023-10-13T00:14:35.786Z,17.80
2023-10-13T00:17:33.649Z,17.80
2023-10-13T00:20:42.758Z,18.00
2023-10-13T00:23:16.017Z,18.10
2023-10-13T00:32:00.723Z,18.30
2023-10-13T00:37:50.016Z,18.30
2023-10-13T00:41:09.288Z,18.20
2023-10-13T00:44:13.616Z,18.10
2023-10-13T01:04:58.578Z,17.80
2023-10-13T01:15:09.560Z,17.90
2023-10-13T01:16:39.575Z,17.90
2023-10-13T01:19:20.563Z,17.90
2023-10-13T01:22:00.563Z,18.00
2023-10-13T01:24:55.550Z,18.00
2023-10-13T01:37:24.695Z,18.10
2023-10-13T01:45:31.409Z,18.00
2023-10-13T01:48:40.399Z,18.00
2023-10-13T01:51:02.811Z,18.10
2023-10-13T02:13:34.414Z,18.00
2023-10-13T02:18:58.798Z,18.10
2023-10-13T02:21:47.889Z,18.10
2023-10-13T02:40:43.822Z,18.10
2023-10-13T02:43:10.941Z,18.10
2023-10-13T02:48:59.700Z,18.10
2023-10-13T02:51:55.460Z,18.10
2023-10-13T03:01:06.966Z,18.00
2023-10-13T03:13:01.778Z,17.90
2023-10-13T03:15:38.424Z,17.90
2023-10-13T03:18:29.509Z,17.90
2023-10-13T03:24:16.037Z,17.80
2023-10-13T03:26:56.318Z,17.80
2023-10-13T03:29:39.595Z,17.80
2023-10-13T03:33:02.562Z,17.80
2023-10-13T03:38:38.600Z,17.80
2023-10-13T03:47:35.440Z,17.70
2023-10-13T03:50:27.016Z,17.70
2023-10-13T04:02:21.337Z,17.60
2023-10-13T04:05:00.658Z,17.60
2023-10-13T04:08:07.780Z,17.60
2023-10-13T04:11:01.111Z,17.60
2023-10-13T04:13:54.195Z,17.50
2023-10-13T04:16:32.162Z,17.50
2023-10-13T04:19:22.268Z,17.50
2023-10-13T04:21:51.368Z,17.50
2023-10-13T04:24:32.108Z,17.50
2023-10-13T04:27:21.461Z,17.50
2023-10-13T04:29:56.798Z,17.50
2023-10-13T04:32:33.197Z,17.50
2023-10-13T04:35:14.416Z,17.50
2023-10-13T04:38:03.923Z,17.50
2023-10-13T04:40:44.620Z,17.50
2023-10-13T04:43:35.097Z,17.50
2023-10-13T04:46:24.302Z,17.50
2023-10-13T04:48:58.315Z,17.40
2023-10-13T04:51:48.889Z,17.40
2023-10-13T04:54:23.062Z,17.40
2023-10-13T04:57:13.680Z,17.40
2023-10-13T04:59:52.018Z,17.40
2023-10-13T05:02:41.525Z,17.40
2023-10-13T05:05:21.309Z,17.30
2023-10-13T05:08:11.707Z,17.30
2023-10-13T05:11:03.245Z,17.30
2023-10-13T05:13:54.034Z,17.30
2023-10-13T05:16:44.605Z,17.30
2023-10-13T05:19:35.151Z,17.20
2023-10-13T05:22:25.456Z,17.20
2023-10-13T05:25:15.841Z,17.20
2023-10-13T05:28:07.492Z,17.20
2023-10-13T05:30:57.939Z,17.20
2023-10-13T05:33:48.758Z,17.20
2023-10-13T05:36:39.483Z,17.20
2023-10-13T05:39:29.892Z,17.20
2023-10-13T05:42:30.320Z,17.20
2023-10-13T05:45:23.373Z,17.20
2023-10-13T05:47:58.243Z,17.20
2023-10-13T05:50:34.057Z,17.20
2023-10-13T05:53:14.743Z,17.20
2023-10-13T05:56:05.222Z,17.10
2023-10-13T05:58:57.768Z,17.10
2023-10-13T06:01:47.801Z,17.10
2023-10-13T06:04:38.367Z,17.10
2023-10-13T06:07:28.579Z,17.00
2023-10-13T06:10:19.168Z,17.00
2023-10-13T06:13:11.480Z,16.90
2023-10-13T06:16:01.957Z,16.90
2023-10-13T06:18:53.145Z,16.90
2023-10-13T06:21:44.089Z,16.80
2023-10-13T06:24:36.336Z,16.80
2023-10-13T06:27:30.785Z,16.70
2023-10-13T06:31:01.823Z,16.70
2023-10-13T06:36:35.883Z,16.70
2023-10-13T06:39:19.981Z,16.60
2023-10-13T06:41:54.238Z,16.60
2023-10-13T06:44:27.714Z,16.60
2023-10-13T06:47:00.753Z,16.50
2023-10-13T06:49:39.180Z,16.50
2023-10-13T06:52:12.264Z,16.40
2023-10-13T06:54:49.641Z,16.40
2023-10-13T06:57:28.087Z,16.40
2023-10-13T07:00:19.204Z,16.40
2023-10-13T07:03:26.588Z,16.40
2023-10-13T07:09:51.897Z,16.30
2023-10-13T07:15:52.023Z,16.20
2023-10-13T07:18:26.273Z,16.20
2023-10-13T07:30:29.345Z,16.10
2023-10-13T07:33:07.086Z,16.00
2023-10-13T07:36:30.964Z,16.00
2023-10-13T07:39:23.279Z,16.00
2023-10-13T07:48:41.160Z,15.80
2023-10-13T07:51:15.985Z,15.70
2023-10-13T07:58:42.687Z,15.60
2023-10-13T08:03:52.110Z,15.60
2023-10-13T08:06:26.593Z,15.50
2023-10-13T08:09:00.825Z,15.50
2023-10-13T08:11:41.161Z,15.50
2023-10-13T08:14:26.730Z,15.50
2023-10-13T08:16:54.414Z,15.50
2023-10-13T08:19:33.012Z,15.50
2023-10-13T08:22:23.107Z,15.50
2023-10-13T08:25:06.490Z,15.40
2023-10-13T08:35:09.504Z,15.30
2023-10-13T08:38:33.448Z,15.30
2023-10-13T08:40:36.397Z,15.30
2023-10-13T08:47:04.155Z,15.20
2023-10-13T08:49:31.148Z,15.20
2023-10-13T08:52:14.675Z,15.20
2023-10-13T08:55:04.272Z,15.20
2023-10-13T08:57:45.221Z,15.20
2023-10-13T09:00:34.542Z,15.20
2023-10-13T09:03:42.588Z,15.10
2023-10-13T09:06:17.989Z,15.10
2023-10-13T09:09:20.124Z,15.10
2023-10-13T09:11:55.900Z,15.10
2023-10-13T09:18:22.157Z,15.00
2023-10-13T09:21:16.228Z,15.00
2023-10-13T09:23:46.351Z,14.90
2023-10-13T09:26:26.300Z,14.90
2023-10-13T09:29:25.228Z,14.90
2023-10-13T09:35:42.018Z,14.90
2023-10-13T09:38:07.436Z,14.90
2023-10-13T09:40:42.211Z,14.90
2023-10-13T09:43:20.345Z,14.80
2023-10-13T09:46:12.918Z,14.80
2023-10-13T09:48:48.894Z,14.80
2023-10-13T09:51:29.455Z,14.80
2023-10-13T09:54:30.698Z,14.70
2023-10-13T09:56:50.055Z,14.70
2023-10-13T09:59:44.986Z,14.70
2023-10-13T10:05:39.117Z,14.70
2023-10-13T10:08:20.128Z,14.70
2023-10-13T10:11:35.508Z,14.70
2023-10-13T10:14:24.645Z,14.70
2023-10-13T10:23:37.982Z,14.60
2023-10-13T10:27:39.343Z,14.60
2023-10-13T10:33:14.289Z,14.60
2023-10-13T10:39:39.131Z,14.50
2023-10-13T10:45:21.135Z,14.50
2023-10-13T10:48:29.176Z,14.50
2023-10-13T10:51:19.079Z,14.50
2023-10-13T10:54:09.491Z,14.50
2023-10-13T11:04:05.083Z,14.60
2023-10-13T11:16:44.151Z,14.70
2023-10-13T11:39:43.454Z,14.80
2023-10-13T11:50:47.184Z,14.90
2023-10-13T12:00:31.611Z,15.00
2023-10-13T12:16:25.884Z,15.00
2023-10-13T12:19:33.326Z,15.00
2023-10-13T12:32:18.822Z,15.10
2023-10-13T12:34:53.112Z,15.10
2023-10-13T12:37:44.676Z,15.10
2023-10-13T12:47:17.401Z,15.20
2023-10-13T13:00:02.185Z,15.20
2023-10-13T13:09:14.629Z,15.20
2023-10-13T13:11:48.913Z,15.20
2023-10-13T13:14:23.162Z,15.30
2023-10-13T13:17:00.898Z,15.30
2023-10-13T13:22:19.213Z,15.30
2023-10-13T13:24:53.516Z,15.30
2023-10-13T13:30:53.183Z,15.30
2023-10-13T14:03:18.245Z,15.30
2023-10-13T14:30:37.859Z,15.40
2023-10-13T14:41:05.491Z,15.40
2023-10-13T14:55:56.678Z,15.30
2023-10-13T15:02:14.427Z,15.30
2023-10-13T15:04:31.915Z,15.30
2023-10-13T15:07:15.544Z,15.30
2023-10-13T15:10:17.133Z,15.30
2023-10-13T15:21:48.218Z,15.30
2023-10-13T15:27:14.867Z,15.30
2023-10-13T15:29:53.945Z,15.30
2023-10-13T15:32:42.961Z,15.30
2023-10-13T15:35:19.136Z,15.30
2023-10-13T15:44:08.605Z,15.30
2023-10-13T15:49:57.653Z,15.30
2023-10-13T15:52:23.900Z,15.30
2023-10-13T15:54:58.275Z,15.30
2023-10-13T15:57:45.192Z,15.30
2023-10-13T16:00:28.826Z,15.20
2023-10-13T16:03:23.756Z,15.20
2023-10-13T16:06:00.416Z,15.20
2023-10-13T16:08:41.169Z,15.20
2023-10-13T16:17:46.530Z,15.20
2023-10-13T16:21:06.910Z,15.20
2023-10-13T16:36:21.462Z,15.20
2023-10-13T16:39:08.940Z,15.20
2023-10-13T16:42:37.751Z,15.20
2023-10-13T16:45:48.100Z,15.20
2023-10-13T16:48:30.606Z,15.10
2023-10-13T16:51:05.088Z,15.10
2023-10-13T16:53:39.120Z,15.10
2023-10-13T16:56:36.263Z,15.10
2023-10-13T16:58:55.862Z,15.10
2023-10-13T17:08:14.183Z,15.10
2023-10-13T17:11:36.810Z,15.10
2023-10-13T17:18:01.739Z,15.10
2023-10-13T17:29:14.024Z,15.10
2023-10-13T17:31:58.506Z,15.10
2023-10-13T17:35:38.324Z,15.10
2023-10-13T17:40:56.339Z,15.00
2023-10-13T17:43:38.814Z,15.10
2023-10-13T17:46:16.858Z,15.10
2023-10-13T17:48:53.417Z,15.10
2023-10-13T17:51:46.784Z,15.10
2023-10-13T17:54:46.707Z,15.10
2023-10-13T17:57:35.407Z,15.10
2023-10-13T18:03:50.626Z,15.10
2023-10-13T18:06:32.550Z,15.00
2023-10-13T18:12:26.183Z,15.00
2023-10-13T18:15:03.970Z,15.00
2023-10-13T18:17:43.277Z,15.00
2023-10-13T18:20:24.231Z,15.00
2023-10-13T18:22:57.237Z,15.00
2023-10-13T18:25:31.330Z,15.00
2023-10-13T18:28:05.514Z,15.00
2023-10-13T18:30:38.881Z,15.00
2023-10-13T18:33:13.206Z,15.00
2023-10-13T18:35:47.519Z,15.00
2023-10-13T18:38:21.102Z,15.00
2023-10-13T18:41:00.694Z,15.00
2023-10-13T18:43:33.998Z,15.00
2023-10-13T18:46:08.617Z,15.10
2023-10-13T18:48:47.300Z,15.10
2023-10-13T18:51:24.155Z,15.10
2023-10-13T18:53:58.583Z,15.10
2023-10-13T18:56:31.902Z,15.10
2023-10-13T18:59:09.082Z,15.10
2023-10-13T19:01:41.972Z,15.10
2023-10-13T19:04:18.618Z,15.20
2023-10-13T19:06:51.930Z,15.20
2023-10-13T19:09:31.129Z,15.20
2023-10-13T19:12:04.415Z,15.20
2023-10-13T19:14:38.345Z,15.20
2023-10-13T19:17:11.313Z,15.20
2023-10-13T19:19:50.720Z,15.20
2023-10-13T19:22:23.718Z,15.20
2023-10-13T19:24:57.645Z,15.30
2023-10-13T19:27:30.642Z,15.30
2023-10-13T19:30:08.934Z,15.30
2023-10-13T19:32:42.152Z,15.30
2023-10-13T19:35:15.587Z,15.30
2023-10-13T19:37:48.516Z,15.40
2023-10-13T19:40:25.070Z,15.40
2023-10-13T19:42:57.742Z,15.40
2023-10-13T19:45:30.924Z,15.40
2023-10-13T19:48:04.171Z,15.50
2023-10-13T19:50:53.925Z,15.50
2023-10-13T19:53:29.014Z,15.50
2023-10-13T19:56:02.288Z,15.50
2023-10-13T19:58:35.254Z,15.60
2023-10-13T20:01:16.283Z,15.60
2023-10-13T20:03:52.193Z,15.60
2023-10-13T20:06:32.453Z,15.60
2023-10-13T20:09:12.247Z,15.70
2023-10-13T20:11:46.463Z,15.70
2023-10-13T20:14:22.552Z,15.80
2023-10-13T20:16:56.916Z,15.80
2023-10-13T20:19:30.150Z,15.80
2023-10-13T20:22:04.642Z,15.80
2023-10-13T20:24:38.601Z,15.90
2023-10-13T20:27:16.356Z,15.90
2023-10-13T20:29:49.679Z,15.90
2023-10-13T20:32:22.796Z,16.00
2023-10-13T20:34:57.022Z,16.00
2023-10-13T20:37:31.105Z,16.00
2023-10-13T20:40:06.517Z,16.10
2023-10-13T20:42:39.406Z,16.10
2023-10-13T20:45:13.073Z,16.20
2023-10-13T20:47:45.940Z,16.20
2023-10-13T20:50:18.887Z,16.30
2023-10-13T20:52:54.802Z,16.30
2023-10-13T20:55:27.396Z,16.30
2023-10-13T20:58:00.545Z,16.30
2023-10-13T21:00:33.735Z,16.40
2023-10-13T21:03:09.819Z,16.40
2023-10-13T21:05:44.449Z,16.40
2023-10-13T21:08:17.584Z,16.50
2023-10-13T21:10:51.694Z,16.60
2023-10-13T21:13:24.755Z,16.70
2023-10-13T21:15:57.882Z,16.80
2023-10-13T21:18:34.326Z,16.80
2023-10-13T21:21:18.947Z,16.90
2023-10-13T21:23:58.528Z,16.90
2023-10-13T21:26:32.190Z,16.90
2023-10-13T21:29:06.098Z,17.00
2023-10-13T21:31:43.118Z,17.00
2023-10-13T21:34:16.962Z,17.00
2023-10-13T21:36:50.099Z,17.00
2023-10-13T21:39:33.874Z,17.00
2023-10-13T21:41:59.603Z,17.00
2023-10-13T21:44:34.522Z,17.00
2023-10-13T21:47:07.507Z,17.00
2023-10-13T21:49:40.623Z,17.10
2023-10-13T21:52:14.697Z,17.10
2023-10-13T21:54:48.149Z,17.10
2023-10-13T21:57:21.235Z,17.10
2023-10-13T21:59:54.194Z,17.20
2023-10-13T22:02:27.227Z,17.20
2023-10-13T22:05:01.564Z,17.30
2023-10-13T22:07:38.928Z,17.40
2023-10-13T22:10:13.959Z,17.50
2023-10-13T22:12:52.705Z,17.50
2023-10-13T22:15:25.521Z,17.50
2023-10-13T22:17:58.460Z,17.60
2023-10-13T22:20:31.639Z,17.60
2023-10-13T22:23:04.701Z,17.60
2023-10-13T22:25:37.685Z,17.70
2023-10-13T22:28:11.299Z,17.80
2023-10-13T22:30:44.611Z,17.80
2023-10-13T22:33:18.626Z,17.90
2023-10-13T22:35:53.118Z,18.00
2023-10-13T22:38:26.104Z,18.10
2023-10-13T22:41:03.202Z,18.10
2023-10-13T22:43:40.174Z,18.10
2023-10-13T22:46:13.415Z,18.10
2023-10-13T22:48:47.053Z,18.10
2023-10-13T22:51:20.393Z,18.20
2023-10-13T22:53:53.663Z,18.20
2023-10-13T22:56:26.794Z,18.20
2023-10-13T22:58:59.721Z,18.20
2023-10-13T23:01:33.343Z,18.30
2023-10-13T23:04:06.678Z,18.30
2023-10-13T23:06:41.598Z,18.40
2023-10-13T23:09:15.854Z,18.40
2023-10-13T23:11:50.300Z,18.40
2023-10-13T23:14:24.602Z,18.50
2023-10-13T23:16:57.755Z,18.50
2023-10-13T23:19:30.943Z,18.50
2023-10-13T23:22:04.180Z,18.50
2023-10-13T23:24:38.600Z,18.50
2023-10-13T23:27:12.510Z,18.50
2023-10-13T23:29:45.457Z,18.60
2023-10-13T23:32:19.340Z,18.60
2023-10-13T23:34:52.377Z,18.60
2023-10-13T23:37:27.087Z,18.60
2023-10-13T23:40:01.445Z,18.50
2023-10-13T23:42:35.514Z,18.60
2023-10-13T23:45:13.008Z,18.60
2023-10-13T23:47:47.258Z,18.60
2023-10-13T23:50:21.555Z,18.50
2023-10-13T23:52:56.211Z,18.50
2023-10-13T23:55:30.558Z,18.50
2023-10-13T23:58:04.713Z,18.50
